Time;durP1;ratioP1;P1;durP2;ratioP2;P2;SDS_P1;SDS_P2;PMS_P1;PMS_P2;Temp;Humidity;BMP_temperature;BMP_pressure;BME280_temperature;BME280_humidity;BME280_pressure;Samples;Min_cycle;Max_cycle;Signal;HPM_P1;HPM_P2
2023/06/26 00:01:17;;;;;;;7.28;5.30;;;22.70;99.90;;;;;;5091245;27;20047;-85
2023/06/26 00:03:42;;;;;;;5.97;4.32;;;22.70;99.90;;;;;;5093455;27;20039;-85
2023/06/26 00:06:08;;;;;;;6.82;5.07;;;22.70;99.90;;;;;;5127816;27;20039;-85
2023/06/26 00:08:34;;;;;;;5.80;4.82;;;22.60;99.90;;;;;;5093227;27;20054;-83
2023/06/26 00:11:05;;;;;;;7.55;4.65;;;22.60;99.90;;;;;;5094179;27;20104;-84
2023/06/26 00:13:31;;;;;;;6.57;5.43;;;22.60;99.90;;;;;;5108509;27;20035;-85
2023/06/26 00:15:56;;;;;;;5.40;4.88;;;22.60;99.90;;;;;;5093517;27;20042;-83
2023/06/26 00:18:23;;;;;;;5.90;4.63;;;22.50;99.90;;;;;;5126188;27;20050;-85
2023/06/26 00:20:49;;;;;;;11.13;5.55;;;22.50;99.90;;;;;;5109973;27;20047;-84
2023/06/26 00:23:16;;;;;;;12.68;6.05;;;22.50;99.90;;;;;;5126944;27;20501;-85
2023/06/26 00:25:43;;;;;;;6.72;5.40;;;22.40;99.90;;;;;;5108802;27;20572;-84
2023/06/26 00:28:09;;;;;;;6.20;5.40;;;22.40;99.90;;;;;;5127871;27;20119;-86
2023/06/26 00:30:35;;;;;;;7.82;5.55;;;22.40;99.90;;;;;;5108219;27;20177;-84
2023/06/26 00:33:01;;;;;;;7.30;5.13;;;22.40;99.90;;;;;;5093683;27;20043;-84
2023/06/26 00:35:26;;;;;;;9.15;6.28;;;22.90;99.90;;;;;;5125921;27;20070;-84
2023/06/26 00:37:52;;;;;;;12.57;5.55;;;22.40;99.90;;;;;;5092945;27;20043;-85
2023/06/26 00:40:18;;;;;;;6.13;5.05;;;22.40;99.90;;;;;;5091802;27;20047;-83
2023/06/26 00:42:43;;;;;;;6.80;5.20;;;22.30;99.90;;;;;;5091998;27;20471;-84
2023/06/26 00:45:09;;;;;;;6.88;5.30;;;22.90;99.90;;;;;;5092321;27;20129;-83
2023/06/26 00:47:36;;;;;;;7.47;5.55;;;22.40;99.90;;;;;;5090987;27;20047;-83
2023/06/26 00:50:02;;;;;;;5.93;5.32;;;22.30;99.90;;;;;;5109696;27;20494;-83
2023/06/26 00:52:28;;;;;;;10.43;5.88;;;22.30;99.90;;;;;;5073119;27;20043;-84
2023/06/26 00:54:53;;;;;;;7.30;5.80;;;22.30;99.90;;;;;;5109665;27;20139;-84
2023/06/26 00:57:19;;;;;;;6.72;5.47;;;22.30;99.90;;;;;;5074436;27;20134;-84
2023/06/26 00:59:45;;;;;;;17.02;7.20;;;22.30;99.90;;;;;;5075641;27;20043;-85
2023/06/26 01:02:11;;;;;;;6.20;5.60;;;22.30;99.90;;;;;;5091743;27;20031;-84
2023/06/26 01:04:37;;;;;;;7.82;5.53;;;22.30;99.90;;;;;;5090710;27;20107;-85
2023/06/26 01:07:03;;;;;;;13.95;5.93;;;22.20;99.90;;;;;;5092826;27;20043;-84
2023/06/26 01:09:30;;;;;;;6.95;5.78;;;22.20;99.90;;;;;;5126282;27;20139;-85
2023/06/26 01:11:56;;;;;;;7.15;6.07;;;22.20;99.90;;;;;;5109767;27;20047;-85
2023/06/26 01:14:22;;;;;;;7.10;5.90;;;22.10;99.90;;;;;;5108108;27;20196;-85
2023/06/26 01:16:49;;;;;;;7.80;6.15;;;22.20;99.90;;;;;;5129347;27;20371;-84
2023/06/26 01:19:25;;;;;;;8.40;5.93;;;22.10;99.90;;;;;;5095768;27;20463;-83
2023/06/26 01:21:58;;;;;;;8.85;5.93;;;22.10;99.90;;;;;;5144362;27;20069;-83
2023/06/26 01:24:27;;;;;;;7.07;5.68;;;22.00;99.90;;;;;;5110066;28;20066;-83
2023/06/26 01:26:53;;;;;;;7.00;6.20;;;22.00;99.90;;;;;;5129546;27;20050;-84
2023/06/26 01:29:23;;;;;;;8.43;6.57;;;22.00;99.90;;;;;;5131747;27;20035;-84
2023/06/26 01:31:49;;;;;;;10.68;6.13;;;22.00;99.90;;;;;;5128649;27;20435;-84
2023/06/26 01:34:18;;;;;;;7.88;6.15;;;22.00;99.90;;;;;;5091101;28;20550;-84
2023/06/26 01:36:45;;;;;;;6.72;6.03;;;22.00;99.90;;;;;;5127907;28;20050;-84
2023/06/26 01:39:16;;;;;;;7.70;6.07;;;22.00;99.90;;;;;;5089414;28;20081;-84
2023/06/26 01:41:42;;;;;;;7.80;5.90;;;22.00;99.90;;;;;;5092369;28;20172;-85
2023/06/26 01:44:26;;;;;;;7.60;6.18;;;21.90;99.90;;;;;;5125466;28;20471;-83
2023/06/26 01:46:59;;;;;;;7.28;6.22;;;21.90;99.90;;;;;;5091000;28;20508;-84
2023/06/26 01:49:43;;;;;;;7.40;5.88;;;21.90;99.90;;;;;;5108820;28;20047;-84
2023/06/26 01:53:13;;;;;;;7.25;6.05;;;21.90;99.90;;;;;;5089501;28;20043;-85
2023/06/26 01:55:50;;;;;;;9.52;6.15;;;21.80;99.90;;;;;;4987668;28;20103;-83
2023/06/26 01:58:18;;;;;;;6.65;5.75;;;21.70;99.90;;;;;;4990908;28;20049;-83
2023/06/26 02:00:44;;;;;;;8.82;5.50;;;21.70;99.90;;;;;;5063185;28;20116;-84
2023/06/26 02:03:10;;;;;;;7.60;6.25;;;21.70;99.90;;;;;;5094400;27;20387;-84
2023/06/26 02:05:35;;;;;;;6.07;5.10;;;21.70;99.90;;;;;;5094482;27;20051;-84
2023/06/26 02:08:02;;;;;;;7.03;5.50;;;21.70;99.90;;;;;;5112515;27;20050;-83
2023/06/26 02:10:28;;;;;;;8.32;6.28;;;21.60;99.90;;;;;;5095205;27;20099;-83
2023/06/26 02:12:54;;;;;;;7.63;6.05;;;21.70;99.90;;;;;;5129874;27;20047;-85
2023/06/26 02:15:19;;;;;;;12.55;6.00;;;21.60;99.90;;;;;;5112879;27;20046;-83
2023/06/26 02:17:48;;;;;;;6.72;5.22;;;21.60;99.90;;;;;;5093332;27;20064;-83
2023/06/26 02:20:14;;;;;;;7.68;5.90;;;21.60;99.90;;;;;;5096135;27;20051;-83
2023/06/26 02:22:40;;;;;;;7.68;5.53;;;21.60;99.90;;;;;;5129134;27;20496;-83
2023/06/26 02:25:06;;;;;;;6.90;5.47;;;21.60;99.90;;;;;;5112552;27;20075;-84
2023/06/26 02:27:31;;;;;;;7.95;5.10;;;21.60;99.90;;;;;;5111419;27;20126;-85
2023/06/26 02:29:57;;;;;;;7.10;5.55;;;21.70;99.90;;;;;;5094373;27;20168;-86
2023/06/26 02:32:23;;;;;;;8.77;5.40;;;21.80;99.90;;;;;;5112687;27;20043;-85
2023/06/26 02:34:51;;;;;;;7.07;5.22;;;21.90;99.90;;;;;;5128976;27;20028;-84
2023/06/26 02:37:17;;;;;;;7.55;5.25;;;21.90;99.90;;;;;;5096057;27;20472;-85
2023/06/26 02:39:43;;;;;;;7.10;5.85;;;21.90;99.90;;;;;;5093038;27;20073;-86
2023/06/26 02:42:09;;;;;;;6.57;5.43;;;22.00;99.90;;;;;;5111649;27;20074;-84
2023/06/26 02:44:34;;;;;;;6.65;5.72;;;22.10;99.90;;;;;;5094075;27;20118;-84
2023/06/26 02:47:00;;;;;;;7.97;5.28;;;22.10;99.90;;;;;;5110568;27;20096;-85
2023/06/26 02:49:26;;;;;;;8.45;5.25;;;22.10;99.90;;;;;;5111925;27;20047;-84
2023/06/26 02:51:51;;;;;;;7.32;6.32;;;22.10;99.90;;;;;;5093002;27;20047;-84
2023/06/26 02:54:17;;;;;;;9.65;6.68;;;22.20;99.90;;;;;;5112113;27;20085;-84
2023/06/26 02:56:43;;;;;;;7.18;6.43;;;22.20;99.90;;;;;;5059517;27;20047;-85
2023/06/26 02:59:08;;;;;;;7.90;5.43;;;22.20;99.90;;;;;;5130471;27;20039;-84
2023/06/26 03:01:34;;;;;;;8.20;5.80;;;22.20;99.90;;;;;;5129743;27;20054;-83
2023/06/26 03:04:00;;;;;;;7.25;6.00;;;22.20;99.90;;;;;;5097382;27;20046;-85
2023/06/26 03:06:27;;;;;;;8.25;6.15;;;22.30;99.90;;;;;;5117032;27;20050;-83
2023/06/26 03:08:53;;;;;;;7.25;5.95;;;22.30;99.90;;;;;;5095383;27;20042;-86
2023/06/26 03:11:19;;;;;;;9.13;6.32;;;22.30;99.90;;;;;;5117897;27;20023;-85
2023/06/26 03:13:45;;;;;;;7.93;6.10;;;22.30;99.90;;;;;;5100941;27;20126;-85
2023/06/26 03:16:11;;;;;;;7.68;6.15;;;22.30;99.90;;;;;;5111914;27;20130;-85
2023/06/26 03:18:36;;;;;;;7.70;5.63;;;22.30;99.90;;;;;;5110818;27;20447;-85
2023/06/26 03:21:02;;;;;;;7.30;6.07;;;22.30;99.90;;;;;;5129416;27;20047;-85
2023/06/26 03:23:28;;;;;;;9.00;6.47;;;22.30;99.90;;;;;;5129766;27;20074;-84
2023/06/26 03:25:54;;;;;;;8.27;6.40;;;22.30;99.90;;;;;;5128130;27;20575;-86
2023/06/26 03:28:19;;;;;;;7.28;6.40;;;22.30;99.90;;;;;;5078019;27;20074;-85
2023/06/26 03:30:45;;;;;;;9.65;6.57;;;22.30;99.90;;;;;;5109256;27;20134;-85
2023/06/26 03:33:11;;;;;;;9.38;6.50;;;22.30;99.90;;;;;;5111328;27;20043;-85
2023/06/26 03:35:37;;;;;;;8.05;6.55;;;22.30;99.90;;;;;;5110292;27;20051;-86
2023/06/26 03:38:04;;;;;;;9.45;7.10;;;22.20;99.90;;;;;;5110296;27;20524;-85
2023/06/26 03:40:29;;;;;;;7.75;6.95;;;22.20;99.90;;;;;;5094010;27;20488;-85
2023/06/26 03:42:55;;;;;;;8.95;6.57;;;22.20;99.90;;;;;;5127315;27;20047;-86
2023/06/26 03:45:21;;;;;;;9.18;6.68;;;22.20;99.90;;;;;;5129893;27;20043;-85
2023/06/26 03:47:49;;;;;;;8.70;6.95;;;22.10;99.90;;;;;;5109248;27;20382;-84
2023/06/26 03:50:19;;;;;;;7.18;6.45;;;22.10;99.90;;;;;;5129399;27;20047;-84
2023/06/26 03:52:45;;;;;;;9.50;7.43;;;22.10;99.90;;;;;;5092341;27;20138;-85
2023/06/26 03:55:11;;;;;;;9.02;6.93;;;22.10;99.90;;;;;;5093160;27;20382;-84
2023/06/26 03:57:36;;;;;;;8.60;6.95;;;22.00;99.90;;;;;;5076871;27;20087;-85
2023/06/26 04:00:11;;;;;;;7.93;6.20;;;22.00;99.90;;;;;;5092754;27;20528;-84
2023/06/26 04:02:36;;;;;;;7.78;6.32;;;22.00;99.90;;;;;;5094133;27;20046;-86
2023/06/26 04:05:04;;;;;;;7.20;6.22;;;22.00;99.90;;;;;;5108467;27;20122;-85
2023/06/26 04:07:30;;;;;;;7.55;6.60;;;21.90;99.90;;;;;;5110876;27;20066;-84
2023/06/26 04:09:57;;;;;;;14.20;7.90;;;21.90;99.90;;;;;;5076059;27;20035;-84
2023/06/26 04:12:23;;;;;;;8.10;6.43;;;21.90;99.90;;;;;;5092330;27;20043;-85
2023/06/26 04:14:48;;;;;;;7.63;6.63;;;21.90;99.90;;;;;;5093395;27;20096;-85
2023/06/26 04:17:14;;;;;;;10.98;6.68;;;21.90;99.90;;;;;;5108566;27;20055;-82
2023/06/26 04:19:40;;;;;;;7.55;6.75;;;21.90;99.90;;;;;;5110809;27;20046;-83
2023/06/26 04:22:05;;;;;;;9.30;6.95;;;21.80;99.90;;;;;;5108465;27;20550;-84
2023/06/26 04:24:31;;;;;;;8.52;6.60;;;21.80;99.90;;;;;;5111492;27;20047;-82
2023/06/26 04:26:57;;;;;;;10.18;6.50;;;21.80;99.90;;;;;;5127738;27;20054;-81
2023/06/26 04:29:27;;;;;;;7.25;6.13;;;21.80;99.90;;;;;;5128107;27;20057;-83
2023/06/26 04:31:57;;;;;;;8.00;6.22;;;21.50;99.90;;;;;;5128673;27;20070;-82
2023/06/26 04:34:26;;;;;;;10.50;5.97;;;21.90;99.90;;;;;;5108588;27;20151;-83
2023/06/26 04:36:52;;;;;;;8.15;6.43;;;21.90;99.90;;;;;;5110918;27;20043;-83
2023/06/26 04:39:18;;;;;;;10.63;5.53;;;22.00;99.90;;;;;;5107896;27;20040;-83
2023/06/26 04:41:44;;;;;;;7.88;6.25;;;22.00;99.90;;;;;;5128686;27;20051;-84
2023/06/26 04:44:10;;;;;;;7.60;5.60;;;22.10;99.90;;;;;;5109143;27;20043;-83
2023/06/26 04:46:40;;;;;;;12.00;5.93;;;22.20;99.90;;;;;;5128545;27;20043;-82
2023/06/26 04:49:09;;;;;;;6.47;4.88;;;22.20;99.90;;;;;;5094935;27;20532;-83
2023/06/26 04:51:40;;;;;;;8.82;5.57;;;22.20;99.90;;;;;;5139856;27;20066;-82
2023/06/26 04:54:10;;;;;;;7.97;5.38;;;21.40;99.90;;;;;;5140418;27;20039;-82
2023/06/26 04:56:36;;;;;;;9.32;4.82;;;22.30;99.90;;;;;;5114973;27;20039;-84
2023/06/26 04:59:02;;;;;;;8.50;6.80;;;22.30;99.90;;;;;;5110730;27;20035;-82
2023/06/26 05:01:29;;;;;;;7.68;5.70;;;22.30;99.90;;;;;;5128113;27;20050;-84
2023/06/26 05:03:56;;;;;;;7.93;6.20;;;22.20;99.90;;;;;;5126660;27;20103;-83
2023/06/26 05:06:23;;;;;;;7.70;5.78;;;22.20;99.90;;;;;;5127870;27;20065;-83
2023/06/26 05:08:48;;;;;;;13.10;6.68;;;22.00;99.90;;;;;;5090337;27;20051;-83
2023/06/26 05:11:14;;;;;;;8.95;5.95;;;21.90;99.90;;;;;;5128207;27;20050;-82
2023/06/26 05:13:40;;;;;;;8.07;6.53;;;21.90;99.90;;;;;;5108257;27;20043;-83
2023/06/26 05:16:08;;;;;;;10.07;7.18;;;21.80;99.90;;;;;;5127390;27;20046;-83
2023/06/26 05:18:34;;;;;;;16.58;6.10;;;21.70;99.90;;;;;;5126837;27;20091;-84
2023/06/26 05:21:00;;;;;;;14.15;6.50;;;21.60;99.90;;;;;;5107677;27;20070;-84
2023/06/26 05:23:28;;;;;;;10.82;6.88;;;21.50;99.90;;;;;;5092250;28;20078;-85
2023/06/26 05:25:54;;;;;;;14.60;6.70;;;21.40;99.90;;;;;;5125717;27;20039;-82
2023/06/26 05:28:20;;;;;;;20.52;7.85;;;21.30;99.90;;;;;;5092563;27;20050;-83
2023/06/26 05:30:46;;;;;;;14.93;6.32;;;21.30;99.90;;;;;;5107801;27;20040;-82
2023/06/26 05:33:17;;;;;;;13.02;7.68;;;21.20;99.90;;;;;;5108994;28;20095;-82
2023/06/26 05:35:45;;;;;;;14.13;6.90;;;21.10;99.90;;;;;;5091947;28;20050;-83
2023/06/26 05:38:13;;;;;;;10.63;6.00;;;21.00;99.90;;;;;;5107551;28;20095;-82
2023/06/26 05:40:40;;;;;;;11.32;5.43;;;22.60;99.90;;;;;;5075710;28;20054;-83
2023/06/26 05:43:07;;;;;;;9.07;4.53;;;20.90;99.90;;;;;;5125597;28;20074;-84
2023/06/26 05:45:33;;;;;;;14.70;4.70;;;20.70;99.90;;;;;;5109145;28;20133;-83
2023/06/26 05:47:58;;;;;;;10.15;5.00;;;20.70;99.90;;;;;;5126249;28;20420;-84
2023/06/26 05:50:25;;;;;;;10.00;4.18;;;20.70;99.90;;;;;;5127037;28;20100;-84
2023/06/26 05:52:51;;;;;;;11.57;4.50;;;20.60;99.90;;;;;;5108398;28;20433;-84
2023/06/26 05:55:17;;;;;;;11.80;4.20;;;20.50;99.90;;;;;;5090644;28;20047;-84
2023/06/26 05:57:45;;;;;;;10.75;4.28;;;20.50;99.90;;;;;;5127881;28;20054;-83
2023/06/26 06:00:11;;;;;;;8.98;4.40;;;20.40;99.90;;;;;;5125278;28;20394;-83
2023/06/26 06:02:38;;;;;;;10.13;3.53;;;20.40;99.90;;;;;;5108729;28;20043;-83
2023/06/26 06:05:05;;;;;;;12.20;4.18;;;20.40;99.90;;;;;;5107378;28;20039;-84
2023/06/26 06:07:35;;;;;;;14.90;3.70;;;20.40;99.90;;;;;;5108283;28;20297;-84
2023/06/26 06:10:02;;;;;;;12.73;3.40;;;20.40;99.90;;;;;;5108173;28;20054;-84
2023/06/26 06:12:28;;;;;;;15.40;4.70;;;20.50;99.90;;;;;;5125661;28;20089;-84
2023/06/26 06:14:54;;;;;;;9.88;3.00;;;20.70;99.90;;;;;;5127358;28;20058;-84
2023/06/26 06:17:20;;;;;;;9.02;3.30;;;20.80;99.90;;;;;;5056194;28;20039;-83
2023/06/26 06:19:46;;;;;;;10.88;2.97;;;20.90;99.90;;;;;;5108775;28;20051;-83
2023/06/26 06:22:12;;;;;;;11.18;2.50;;;20.90;99.90;;;;;;5107651;28;20041;-82
2023/06/26 06:24:38;;;;;;;11.57;3.55;;;20.90;99.90;;;;;;5107670;28;20500;-83
2023/06/26 06:27:03;;;;;;;8.18;2.28;;;20.90;99.90;;;;;;5126815;28;20475;-84
2023/06/26 06:29:29;;;;;;;9.00;2.33;;;20.80;99.90;;;;;;5107065;28;20430;-83
2023/06/26 06:31:55;;;;;;;7.43;2.30;;;20.80;99.90;;;;;;5092371;28;20043;-82
2023/06/26 06:34:21;;;;;;;9.68;2.47;;;20.80;99.90;;;;;;5129058;28;20031;-82
2023/06/26 06:36:47;;;;;;;9.63;2.38;;;20.90;99.90;;;;;;5117343;28;20046;-81
2023/06/26 06:39:12;;;;;;;8.07;2.58;;;20.90;99.90;;;;;;5121605;28;20063;-82
2023/06/26 06:41:39;;;;;;;12.02;2.47;;;21.00;99.90;;;;;;5136426;28;20074;-84
2023/06/26 06:44:04;;;;;;;11.02;3.13;;;20.80;99.90;;;;;;5127677;28;20523;-85
2023/06/26 06:46:30;;;;;;;8.05;2.05;;;21.10;99.90;;;;;;5106922;28;20071;-84
2023/06/26 06:48:56;;;;;;;10.05;2.63;;;21.20;99.90;;;;;;5074980;27;20051;-84
2023/06/26 06:51:22;;;;;;;13.32;3.10;;;21.40;99.90;;;;;;5128473;27;20061;-84
2023/06/26 06:53:48;;;;;;;8.18;2.55;;;21.50;99.90;;;;;;5094906;27;20044;-83
2023/06/26 06:56:14;;;;;;;8.82;1.48;;;21.50;99.90;;;;;;5128416;27;20039;-83
2023/06/26 06:58:42;;;;;;;4.10;1.92;;;21.60;99.90;;;;;;5111463;27;20078;-82
2023/06/26 07:01:09;;;;;;;10.27;2.00;;;21.70;99.90;;;;;;5094936;27;20050;-83
2023/06/26 07:03:35;;;;;;;6.25;1.70;;;21.80;99.90;;;;;;5110228;27;20074;-82
2023/06/26 07:06:01;;;;;;;11.80;2.10;;;21.90;99.90;;;;;;5130423;27;20046;-83
2023/06/26 07:08:27;;;;;;;3.97;1.38;;;22.00;99.90;;;;;;5128132;27;20035;-84
2023/06/26 07:10:53;;;;;;;3.38;1.40;;;22.10;99.90;;;;;;5112043;27;20501;-83
2023/06/26 07:13:18;;;;;;;3.35;1.23;;;22.20;99.90;;;;;;5076001;27;20046;-83
2023/06/26 07:15:45;;;;;;;4.18;1.20;;;22.30;99.90;;;;;;5093834;27;20110;-82
2023/06/26 07:18:11;;;;;;;5.72;1.30;;;22.40;99.90;;;;;;5110934;27;20157;-82
2023/06/26 07:20:36;;;;;;;6.88;1.50;;;22.50;99.90;;;;;;5093249;27;20078;-83
2023/06/26 07:23:02;;;;;;;5.32;1.42;;;22.50;99.90;;;;;;5130036;27;20047;-82
2023/06/26 07:25:28;;;;;;;5.50;1.50;;;22.60;99.90;;;;;;5109455;27;20047;-82
2023/06/26 07:27:54;;;;;;;5.25;1.05;;;22.70;99.90;;;;;;5111660;27;20505;-82
2023/06/26 07:30:19;;;;;;;4.15;1.13;;;22.70;99.90;;;;;;5092682;27;20051;-83
2023/06/26 07:32:45;;;;;;;5.47;1.20;;;22.60;99.90;;;;;;5129518;27;20184;-84
2023/06/26 07:35:11;;;;;;;5.35;1.48;;;22.60;99.90;;;;;;5129469;27;20047;-82
2023/06/26 07:37:37;;;;;;;5.90;1.58;;;22.60;99.90;;;;;;5109999;27;20043;-84
2023/06/26 07:40:03;;;;;;;5.05;1.20;;;22.60;99.90;;;;;;5093947;27;20518;-82
2023/06/26 07:42:29;;;;;;;7.65;1.23;;;22.70;99.90;;;;;;5127143;27;20065;-82
2023/06/26 07:44:56;;;;;;;10.48;1.98;;;22.70;99.90;;;;;;5111270;27;20046;-82
2023/06/26 07:47:24;;;;;;;3.60;0.90;;;22.70;99.90;;;;;;5092734;27;20065;-83
2023/06/26 07:49:50;;;;;;;4.53;1.40;;;22.70;99.90;;;;;;5093636;27;20046;-83
2023/06/26 07:52:16;;;;;;;8.23;0.85;;;22.70;99.90;;;;;;5093098;27;20352;-82
2023/06/26 07:54:42;;;;;;;4.78;0.80;;;22.60;99.90;;;;;;5076000;27;20050;-84
2023/06/26 07:57:08;;;;;;;3.20;1.10;;;22.50;99.90;;;;;;5129024;27;20147;-83
2023/06/26 07:59:34;;;;;;;2.50;0.80;;;22.50;99.90;;;;;;5109042;27;20123;-83
2023/06/26 08:02:01;;;;;;;5.30;1.13;;;22.60;99.90;;;;;;5110657;27;20047;-84
2023/06/26 08:04:29;;;;;;;3.97;0.82;;;22.70;99.90;;;;;;5092110;27;20047;-82
2023/06/26 08:06:57;;;;;;;4.82;1.15;;;22.80;99.90;;;;;;5128662;27;20554;-82
2023/06/26 08:09:25;;;;;;;4.57;0.90;;;22.80;99.90;;;;;;5110157;27;20054;-83
2023/06/26 08:11:51;;;;;;;4.43;0.85;;;22.70;99.90;;;;;;5092230;27;20307;-82
2023/06/26 08:14:17;;;;;;;3.05;0.88;;;22.60;99.90;;;;;;5111006;27;20043;-84
2023/06/26 08:16:44;;;;;;;5.72;0.82;;;22.70;99.90;;;;;;5110861;27;20043;-83
2023/06/26 08:19:10;;;;;;;3.20;1.23;;;22.70;99.90;;;;;;5097003;27;20122;-82
2023/06/26 08:21:35;;;;;;;4.15;0.90;;;22.70;99.90;;;;;;5106762;27;20603;-82
2023/06/26 08:24:02;;;;;;;2.80;1.63;;;22.80;99.90;;;;;;5119445;27;20047;-83
2023/06/26 08:26:28;;;;;;;2.83;0.90;;;23.00;99.90;;;;;;5128782;27;20122;-83
2023/06/26 08:28:54;;;;;;;4.53;0.80;;;23.10;99.70;;;;;;5128322;27;20081;-84
2023/06/26 08:31:20;;;;;;;6.22;1.00;;;23.10;99.60;;;;;;5128469;27;20047;-84
2023/06/26 08:33:46;;;;;;;3.65;1.00;;;23.10;99.50;;;;;;5108263;27;20083;-84
2023/06/26 08:36:12;;;;;;;4.50;1.05;;;23.30;99.50;;;;;;5093183;27;20050;-81
2023/06/26 08:38:40;;;;;;;5.28;1.23;;;23.40;99.30;;;;;;5108029;27;20039;-85
2023/06/26 08:41:09;;;;;;;3.75;0.95;;;23.40;99.20;;;;;;5109565;27;20079;-85
2023/06/26 08:43:35;;;;;;;5.55;1.17;;;23.30;98.90;;;;;;5108769;27;20135;-83
2023/06/26 08:46:02;;;;;;;7.40;1.23;;;23.30;98.90;;;;;;5126892;27;20047;-84
2023/06/26 08:48:33;;;;;;;3.28;0.73;;;23.30;98.80;;;;;;5109541;27;20035;-81
2023/06/26 08:51:05;;;;;;;6.20;1.10;;;23.40;98.50;;;;;;5126269;27;20046;-83
2023/06/26 08:53:49;;;;;;;2.08;0.65;;;23.10;98.50;;;;;;5109913;27;20043;-83
2023/06/26 08:56:17;;;;;;;2.50;1.00;;;23.10;98.60;;;;;;5091614;27;20509;-83
2023/06/26 08:58:44;;;;;;;3.38;0.98;;;23.20;98.70;;;;;;5108153;27;20058;-84
2023/06/26 09:01:11;;;;;;;4.63;0.95;;;23.50;98.60;;;;;;5109374;27;20047;-83
2023/06/26 09:03:37;;;;;;;3.88;1.05;;;23.70;98.40;;;;;;5108097;27;20078;-82
2023/06/26 09:06:02;;;;;;;2.25;1.23;;;23.90;98.00;;;;;;5092710;27;20055;-83
2023/06/26 09:08:28;;;;;;;3.47;1.00;;;23.90;97.80;;;;;;5091106;27;20035;-83
2023/06/26 09:10:54;;;;;;;1.88;0.70;;;23.80;97.70;;;;;;5127936;27;20060;-84
2023/06/26 09:13:20;;;;;;;3.60;1.50;;;23.70;97.60;;;;;;5091438;27;20035;-84
2023/06/26 09:15:46;;;;;;;3.35;1.08;;;23.80;97.50;;;;;;5126882;27;20032;-83
2023/06/26 09:18:16;;;;;;;2.50;1.02;;;23.90;97.40;;;;;;5109462;27;20100;-84
2023/06/26 09:20:42;;;;;;;3.75;1.02;;;24.00;97.30;;;;;;5107398;27;20125;-84
2023/06/26 09:23:08;;;;;;;4.05;1.35;;;23.80;97.10;;;;;;5128054;27;20087;-84
2023/06/26 09:25:39;;;;;;;2.97;0.90;;;23.70;96.90;;;;;;5126032;27;20043;-83
2023/06/26 09:28:05;;;;;;;2.72;1.13;;;23.70;96.90;;;;;;5109174;28;20115;-81
2023/06/26 09:30:34;;;;;;;2.95;1.30;;;23.80;96.70;;;;;;5108478;28;20046;-83
2023/06/26 09:33:19;;;;;;;3.95;0.98;;;23.80;96.20;;;;;;5126446;27;20077;-83
2023/06/26 09:35:46;;;;;;;4.28;1.23;;;23.70;96.20;;;;;;5127808;27;20051;-83
2023/06/26 09:38:13;;;;;;;3.05;1.05;;;23.70;96.60;;;;;;5127047;28;20047;-83
2023/06/26 09:40:39;;;;;;;2.28;1.00;;;23.70;96.50;;;;;;5128139;28;20047;-83
2023/06/26 09:43:06;;;;;;;2.50;1.08;;;23.90;96.40;;;;;;5090640;28;20505;-83
2023/06/26 09:45:36;;;;;;;2.33;0.90;;;24.00;96.20;;;;;;5107829;28;20054;-82
2023/06/26 09:48:07;;;;;;;2.78;1.10;;;23.90;95.90;;;;;;5127091;28;20039;-84
2023/06/26 09:50:37;;;;;;;4.05;0.90;;;23.70;95.90;;;;;;5107369;28;20047;-83
2023/06/26 09:53:13;;;;;;;4.35;0.90;;;23.60;96.00;;;;;;5109405;28;20035;-83
2023/06/26 09:55:40;;;;;;;4.97;1.42;;;23.50;95.60;;;;;;5126299;28;20107;-84
2023/06/26 09:58:06;;;;;;;4.97;1.15;;;23.40;95.80;;;;;;5127595;28;20050;-83
2023/06/26 10:00:32;;;;;;;4.97;1.92;;;23.40;95.70;;;;;;5092507;28;20037;-83
2023/06/26 10:03:02;;;;;;;1.80;0.90;;;23.60;95.50;;;;;;5115354;28;20100;-83
2023/06/26 10:05:28;;;;;;;3.10;1.60;;;23.80;95.40;;;;;;5108303;28;20098;-82
2023/06/26 10:07:54;;;;;;;3.10;1.05;;;23.80;95.10;;;;;;5101138;28;20148;-83
2023/06/26 10:10:22;;;;;;;3.03;1.30;;;24.00;94.90;;;;;;5111553;28;20519;-85
2023/06/26 10:12:51;;;;;;;3.80;1.30;;;24.10;94.50;;;;;;5108685;28;20031;-84
2023/06/26 10:15:19;;;;;;;3.30;1.20;;;24.20;94.40;;;;;;5108559;28;20047;-83
2023/06/26 10:17:47;;;;;;;3.75;1.30;;;24.20;94.30;;;;;;5108300;28;20050;-84
2023/06/26 10:20:15;;;;;;;3.40;1.50;;;24.00;94.00;;;;;;5107304;28;20054;-83
2023/06/26 10:22:46;;;;;;;3.78;1.00;;;24.00;93.90;;;;;;5091924;28;20051;-82
2023/06/26 10:25:17;;;;;;;2.72;1.23;;;24.10;93.80;;;;;;5127944;27;20070;-83
2023/06/26 10:27:47;;;;;;;2.75;1.20;;;24.30;93.70;;;;;;5113428;27;20398;-84
2023/06/26 10:30:20;;;;;;;2.85;1.13;;;24.60;93.40;;;;;;5112133;27;20047;-83
2023/06/26 10:32:46;;;;;;;4.25;1.60;;;24.80;92.70;;;;;;5111181;27;20067;-83
2023/06/26 10:35:12;;;;;;;3.28;1.40;;;25.00;92.60;;;;;;5131218;27;20038;-83
2023/06/26 10:37:43;;;;;;;4.13;1.20;;;24.90;92.30;;;;;;5129251;27;20039;-84
2023/06/26 10:40:10;;;;;;;4.47;1.23;;;24.80;92.30;;;;;;5095748;27;20047;-84
2023/06/26 10:42:38;;;;;;;2.63;1.15;;;24.80;92.20;;;;;;5129058;27;20415;-84
2023/06/26 10:45:13;;;;;;;3.97;1.60;;;24.60;91.90;;;;;;5130842;27;20043;-83
2023/06/26 10:47:41;;;;;;;3.22;1.90;;;24.70;91.90;;;;;;5130035;27;20043;-84
2023/06/26 10:50:35;;;;;;;2.83;1.10;;;24.60;91.90;;;;;;5111070;27;20445;-84
2023/06/26 10:53:19;;;;;;;3.88;1.30;;;24.40;91.20;;;;;;5131305;27;20082;-83
2023/06/26 10:56:03;;;;;;;1.95;1.20;;;24.10;91.80;;;;;;5111320;27;20541;-87
2023/06/26 10:58:40;;;;;;;6.07;1.30;;;23.90;92.20;;;;;;5111122;27;20096;-84
2023/06/26 11:01:12;;;;;;;3.35;1.35;;;23.80;92.10;;;;;;5112363;27;20055;-85
2023/06/26 11:03:38;;;;;;;3.80;1.13;;;23.70;92.40;;;;;;5093217;27;20058;-83
2023/06/26 11:06:15;;;;;;;1.65;1.02;;;23.90;92.30;;;;;;5095189;27;20045;-85
2023/06/26 11:08:49;;;;;;;4.93;1.58;;;24.10;91.60;;;;;;5112013;27;20043;-84
2023/06/26 11:11:15;;;;;;;5.85;1.52;;;24.20;91.70;;;;;;5093478;27;20039;-86
2023/06/26 11:13:41;;;;;;;1.75;0.93;;;24.00;91.80;;;;;;5111938;27;20078;-85
2023/06/26 11:16:07;;;;;;;8.32;1.27;;;23.80;91.70;;;;;;5093110;27;20047;-85
2023/06/26 11:18:33;;;;;;;4.75;0.98;;;24.30;91.80;;;;;;5112500;27;20046;-85
2023/06/26 11:21:09;;;;;;;7.90;1.48;;;23.80;91.60;;;;;;5093511;27;20375;-87
2023/06/26 11:23:37;;;;;;;3.33;1.13;;;23.90;91.40;;;;;;5110919;27;20051;-84
2023/06/26 11:26:21;;;;;;;6.05;1.40;;;24.00;91.20;;;;;;5111493;27;20046;-85
2023/06/26 11:28:56;;;;;;;2.17;0.70;;;24.10;91.20;;;;;;5110577;27;20548;-84
2023/06/26 11:31:27;;;;;;;3.00;1.17;;;25.00;90.90;;;;;;5111509;27;20062;-85
2023/06/26 11:33:54;;;;;;;2.30;0.52;;;24.10;90.60;;;;;;5092809;27;20515;-84
2023/06/26 11:36:24;;;;;;;3.15;1.05;;;24.00;90.60;;;;;;5093495;27;20081;-84
2023/06/26 11:38:58;;;;;;;2.30;0.70;;;24.20;90.50;;;;;;5093993;27;20046;-84
2023/06/26 11:41:26;;;;;;;5.05;1.02;;;24.40;90.60;;;;;;5128461;27;20494;-85
2023/06/26 11:43:52;;;;;;;4.55;0.90;;;24.60;90.40;;;;;;5090515;28;20165;-84
2023/06/26 11:46:22;;;;;;;4.45;0.90;;;24.60;90.20;;;;;;5110207;28;20043;-84
2023/06/26 11:48:48;;;;;;;2.78;0.60;;;24.70;90.10;;;;;;5112538;28;20046;-84
2023/06/26 11:51:15;;;;;;;3.70;0.73;;;24.80;90.20;;;;;;5125136;28;20036;-83
2023/06/26 11:53:42;;;;;;;4.25;1.00;;;24.80;90.20;;;;;;5128623;28;20118;-83
2023/06/26 11:56:09;;;;;;;2.85;0.82;;;24.90;89.80;;;;;;5121092;28;20479;-84
2023/06/26 11:58:35;;;;;;;3.60;0.75;;;24.90;89.20;;;;;;5108701;28;20123;-85
2023/06/26 12:01:01;;;;;;;2.35;0.60;;;25.00;89.00;;;;;;5109386;28;20132;-82
2023/06/26 12:03:27;;;;;;;2.72;0.90;;;25.00;88.50;;;;;;5107410;28;20047;-85
2023/06/26 12:05:52;;;;;;;5.75;0.82;;;24.90;87.90;;;;;;5090759;28;20051;-85
2023/06/26 12:08:18;;;;;;;2.47;0.93;;;25.00;88.00;;;;;;5106470;28;20043;-84
2023/06/26 12:10:45;;;;;;;3.50;0.90;;;25.10;88.80;;;;;;5106509;28;20047;-83
2023/06/26 12:13:11;;;;;;;4.80;0.93;;;25.20;87.10;;;;;;5107058;28;20048;-85
2023/06/26 12:15:37;;;;;;;5.22;0.98;;;25.10;86.00;;;;;;5105775;28;20044;-83
2023/06/26 12:18:09;;;;;;;3.75;0.68;;;25.20;86.00;;;;;;5107432;28;20044;-83
2023/06/26 12:20:40;;;;;;;4.60;0.80;;;25.30;85.60;;;;;;5106807;28;20112;-83
2023/06/26 12:23:12;;;;;;;3.55;1.15;;;25.20;85.10;;;;;;5108414;28;20498;-82
2023/06/26 12:25:38;;;;;;;;;;;25.10;84.80;;;;;;5107294;28;20047;-83
2023/06/26 12:28:14;;;;;;;3.67;0.90;;;25.00;82.70;;;;;;5105779;28;20007;-83
2023/06/26 12:30:40;;;;;;;3.40;0.80;;;25.10;85.40;;;;;;5107244;28;20502;-83
2023/06/26 12:33:13;;;;;;;2.17;0.75;;;25.30;85.50;;;;;;5104815;28;20047;-84
2023/06/26 12:35:39;;;;;;;5.63;0.98;;;25.40;83.20;;;;;;5106734;28;20502;-82
2023/06/26 12:38:10;;;;;;;3.80;0.65;;;25.30;82.90;;;;;;5105201;28;20052;-83
2023/06/26 12:40:45;;;;;;;4.22;0.68;;;25.40;82.50;;;;;;5106192;28;20055;-83
2023/06/26 12:43:22;;;;;;;4.03;0.85;;;25.40;81.40;;;;;;5106172;28;20091;-83
2023/06/26 12:45:47;;;;;;;2.80;0.60;;;25.30;81.30;;;;;;5104766;28;20052;-84
2023/06/26 12:48:13;;;;;;;3.17;0.77;;;25.10;81.00;;;;;;5089302;28;20083;-82